Fairbanks, AK

9:26 AM AKST on February 26, 2017 (GMT -0900)
200 Slater Dr. | | Change Station

Elev 450 ft 64.84 °N, 147.70 °W | Updated 3 seconds ago

Overcast
Overcast
30.9 °F
Feels Like 31 °F
N
2.0
Wind Variable Wind from West
Gusts 5.0 mph

Today
High -- | Low -- °F
--% Chance of Precip.
Yesterday
High -- | Low -- °F
Precip. -- in
Pressure 30.11 in
Visibility 6.0 miles
Clouds Few 700 ft
Scattered Clouds 1600 ft
Overcast 2200 ft
Windchill 31 °F
Dew Point 29 °F
Humidity 93%
Rainfall 0.00 in
Snow Depth Not available.
8:09 AM 5:59 PM
New Moon, 0% visible
SPECI PAFB 261816Z AUTO 24009KT 6SM BR FEW007 SCT016 OVC022 M01/M02 A3011 RMK AO2 UPB1759E16 OVC V BKN
Pressure 30.11 in
Visibility 6.0 miles
Clouds Few 700 ft
Scattered Clouds 1600 ft
Overcast 2200 ft
Windchill 31 °F
Dew Point 29 °F
Humidity 93%
Rainfall 0.00 in
Snow Depth Not available.
8:09 AM 5:59 PM
New Moon, 0% visible
SPECI PAFB 261816Z AUTO 24009KT 6SM BR FEW007 SCT016 OVC022 M01/M02 A3011 RMK AO2 UPB1759E16 OVC V BKN

Get Your Daily Forecast Email!

Thanks for signing up!

Be on the lookout for a verification email in your inbox.

You'll start receiving the daily forecast at 8 AM.

×

10-Day Weather Forecast

Almanac

Astronomy

Feb. 26, 2017 Rise Set
Actual Time
Civil Twilight
Nautical Twilight
Astronomical Twilight
Moon
Length of Visible Light
Length of Day
Tomorrow will be .
, % of the Moon is Illuminated

Today's Extremes

State Highs State Lows

Community

WunderPhotos

Upload Photos

1,962,540 photos uploaded!

WunderBlog® & News

Nearby

Air Quality

  Air Quality AQ Index Pollutant
Not available.

Snow Depth

Station Depth Elevation

Earthquake Activity

City Distance Mag. Time & Date
Minimum magnitude displayed is 2.5.

Coastal Water Temperatures

Place Temperature

Stations

Nearby Weather Stations

Station Location Temp. Windchill Dew Point Humidity Wind Precip. Elev Updated Type
                   

Watches & Warnings

There are currently no watches in effect.